Time;durP1;ratioP1;P1;durP2;ratioP2;P2;SDS_P1;SDS_P2;PMS_P1;PMS_P2;Temp;Humidity;BMP_temperature;BMP_pressure;BME280_temperature;BME280_humidity;BME280_pressure;Samples;Min_cycle;Max_cycle;Signal;HPM_P1;HPM_P2
2022/09/16 00:01:15;;;;;;;3.17;1.10;;;12.70;97.30;;;;;;5005480;28;20575;-93
2022/09/16 00:03:41;;;;;;;1.70;1.10;;;12.70;97.30;;;;;;5014993;28;20185;-92
2022/09/16 00:06:17;;;;;;;1.43;1.20;;;12.70;97.30;;;;;;5016113;28;20424;-92
2022/09/16 00:08:44;;;;;;;1.00;0.90;;;12.60;97.30;;;;;;5025864;28;20439;-92
2022/09/16 00:11:10;;;;;;;1.10;1.00;;;12.60;97.30;;;;;;5020342;28;20435;-92
2022/09/16 00:13:36;;;;;;;1.00;0.90;;;12.60;97.30;;;;;;5017290;28;20427;-92
2022/09/16 00:16:06;;;;;;;4.80;1.60;;;12.60;97.30;;;;;;5009576;28;20514;-92
2022/09/16 00:18:32;;;;;;;3.60;1.43;;;12.60;97.30;;;;;;5018932;28;20177;-91
2022/09/16 00:20:57;;;;;;;1.00;0.90;;;12.60;97.30;;;;;;5011779;28;20819;-93
2022/09/16 00:23:23;;;;;;;1.17;1.07;;;12.60;97.30;;;;;;5020521;28;20833;-92
2022/09/16 00:25:53;;;;;;;1.10;1.00;;;12.50;97.30;;;;;;5027482;28;20188;-92
2022/09/16 00:28:22;;;;;;;1.37;1.20;;;12.50;97.30;;;;;;5021774;28;20196;-92
2022/09/16 00:30:48;;;;;;;2.03;1.10;;;12.50;97.30;;;;;;5023203;28;20429;-93
2022/09/16 00:33:14;;;;;;;1.50;1.47;;;12.50;97.30;;;;;;5019803;28;20444;-93
2022/09/16 00:35:40;;;;;;;1.10;1.10;;;12.50;97.30;;;;;;5013835;28;20423;-92
2022/09/16 00:38:06;;;;;;;1.47;1.37;;;12.50;97.30;;;;;;5021394;28;21073;-93
2022/09/16 00:40:32;;;;;;;1.57;1.47;;;12.50;97.30;;;;;;5013955;28;20203;-92
2022/09/16 00:42:59;;;;;;;1.00;0.90;;;12.50;97.30;;;;;;5022895;28;20466;-91
2022/09/16 00:45:30;;;;;;;1.20;1.03;;;12.40;97.30;;;;;;5027174;28;20180;-92
2022/09/16 00:48:21;;;;;;;1.00;1.00;;;12.40;97.30;;;;;;5030484;28;20431;-93
2022/09/16 00:50:50;;;;;;;1.10;1.00;;;12.40;97.30;;;;;;5021690;28;20423;-93
2022/09/16 00:53:22;;;;;;;1.50;1.20;;;12.50;97.30;;;;;;5029388;28;20407;-93
2022/09/16 00:55:49;;;;;;;1.27;1.17;;;12.50;97.30;;;;;;5029147;28;21220;-92
2022/09/16 00:58:22;;;;;;;1.10;1.00;;;12.40;97.30;;;;;;5028334;28;20415;-93
2022/09/16 01:00:48;;;;;;;1.00;0.90;;;12.40;97.30;;;;;;5027224;28;20442;-92
2022/09/16 01:03:14;;;;;;;1.30;1.20;;;12.40;97.30;;;;;;5028222;28;20495;-93
2022/09/16 01:05:41;;;;;;;1.67;1.03;;;12.40;97.30;;;;;;5030013;28;20435;-92
2022/09/16 01:08:08;;;;;;;1.33;1.13;;;12.40;97.30;;;;;;5029767;28;20175;-93
2022/09/16 01:10:34;;;;;;;1.10;1.00;;;12.40;97.30;;;;;;5036779;28;20431;-92
2022/09/16 01:13:05;;;;;;;1.00;0.90;;;12.30;97.30;;;;;;5031206;28;20446;-93
2022/09/16 01:15:42;;;;;;;1.83;1.63;;;12.40;97.30;;;;;;5031996;28;20202;-93
2022/09/16 01:18:20;;;;;;;1.40;1.10;;;12.40;97.30;;;;;;5030629;28;20419;-92
2022/09/16 01:21:05;;;;;;;1.63;1.53;;;12.30;97.30;;;;;;5009756;28;21008;-93
2022/09/16 01:24:02;;;;;;;1.20;0.90;;;12.30;97.30;;;;;;5040783;28;20469;-92
2022/09/16 01:27:08;;;;;;;1.33;1.30;;;12.30;97.30;;;;;;5048444;28;20504;-93
2022/09/16 01:29:53;;;;;;;0.80;0.80;;;12.30;97.30;;;;;;5058347;28;20456;-93
2022/09/16 01:32:50;;;;;;;1.03;0.93;;;12.30;97.30;;;;;;5053295;28;20442;-93
2022/09/16 01:35:30;;;;;;;2.67;1.20;;;12.30;97.30;;;;;;5046613;28;20943;-92
2022/09/16 01:38:12;;;;;;;2.40;1.30;;;12.30;97.30;;;;;;5052734;28;20499;-93
2022/09/16 01:41:05;;;;;;;1.10;1.00;;;12.30;97.30;;;;;;5049622;28;20414;-91
2022/09/16 01:44:05;;;;;;;1.20;1.10;;;12.30;97.30;;;;;;5054271;28;20429;-91
2022/09/16 01:46:56;;;;;;;1.00;0.90;;;12.30;97.30;;;;;;5059112;28;20426;-90
2022/09/16 01:49:47;;;;;;;0.90;0.80;;;12.30;97.30;;;;;;5059897;28;20417;-92
2022/09/16 01:52:35;;;;;;;0.93;0.90;;;12.30;97.30;;;;;;5058004;28;20432;-90
2022/09/16 01:55:08;;;;;;;0.90;0.90;;;12.20;97.30;;;;;;5049021;28;20422;-91
2022/09/16 01:57:50;;;;;;;1.10;1.00;;;12.20;97.30;;;;;;5047905;28;20453;-92
2022/09/16 02:00:16;;;;;;;1.53;1.17;;;12.20;97.30;;;;;;5044319;28;20414;-91
2022/09/16 02:02:45;;;;;;;1.00;0.90;;;12.20;97.30;;;;;;5044913;28;20839;-91
2022/09/16 02:05:17;;;;;;;2.70;0.90;;;12.10;97.30;;;;;;5045895;28;20410;-91
2022/09/16 02:07:50;;;;;;;1.00;0.90;;;12.10;97.30;;;;;;5050210;28;20418;-90
2022/09/16 02:10:34;;;;;;;1.20;1.10;;;12.10;97.30;;;;;;5048574;28;20494;-91
2022/09/16 02:13:11;;;;;;;1.27;1.17;;;12.00;97.30;;;;;;5045287;28;20511;-92
2022/09/16 02:15:41;;;;;;;1.80;1.00;;;12.00;97.30;;;;;;5061683;28;20453;-91
2022/09/16 02:18:13;;;;;;;2.60;1.13;;;12.00;97.30;;;;;;5047689;28;20418;-91
2022/09/16 02:20:43;;;;;;;1.10;1.00;;;12.00;97.30;;;;;;5046359;28;20489;-90
2022/09/16 02:23:18;;;;;;;1.40;1.30;;;11.90;97.30;;;;;;5044854;28;20480;-92
2022/09/16 02:25:47;;;;;;;1.30;1.20;;;11.90;97.30;;;;;;5044833;28;20409;-92
2022/09/16 02:28:20;;;;;;;1.10;1.00;;;11.90;97.30;;;;;;5045590;28;20420;-91
2022/09/16 02:30:50;;;;;;;4.73;1.03;;;11.90;97.30;;;;;;5047921;28;20429;-91
2022/09/16 02:33:18;;;;;;;1.00;0.90;;;11.90;97.30;;;;;;5062083;28;20411;-91
2022/09/16 02:35:47;;;;;;;1.00;0.90;;;11.90;97.30;;;;;;5052149;28;20417;-92
2022/09/16 02:38:34;;;;;;;1.00;0.90;;;11.90;97.30;;;;;;5048976;28;20426;-92
2022/09/16 02:41:00;;;;;;;1.00;0.90;;;11.90;97.30;;;;;;5053732;28;20440;-93
2022/09/16 02:43:27;;;;;;;2.77;1.23;;;11.90;97.30;;;;;;5064871;28;20411;-90
2022/09/16 02:46:18;;;;;;;1.00;0.90;;;11.90;97.30;;;;;;5051483;28;20462;-90
2022/09/16 02:48:55;;;;;;;1.10;1.00;;;11.90;97.30;;;;;;5053403;28;20503;-93
2022/09/16 02:51:57;;;;;;;1.80;1.70;;;11.80;97.30;;;;;;5053668;28;20438;-92
2022/09/16 02:54:26;;;;;;;0.90;0.80;;;11.80;97.30;;;;;;5051736;28;20417;-92
2022/09/16 02:56:54;;;;;;;1.53;1.23;;;11.80;97.30;;;;;;5054188;28;20425;-91
2022/09/16 02:59:21;;;;;;;1.27;1.17;;;11.70;97.30;;;;;;5052151;28;20474;-91
2022/09/16 03:01:47;;;;;;;1.07;0.97;;;11.70;97.30;;;;;;5067962;28;20466;-91
2022/09/16 03:04:17;;;;;;;1.47;1.03;;;11.70;97.30;;;;;;5037490;28;20418;-92
2022/09/16 03:06:43;;;;;;;1.17;1.13;;;11.60;97.30;;;;;;5050972;28;20194;-92
2022/09/16 03:09:11;;;;;;;2.40;1.00;;;11.60;97.30;;;;;;5067789;28;20414;-91
2022/09/16 03:11:52;;;;;;;2.17;1.50;;;11.60;97.30;;;;;;5050564;28;20438;-91
2022/09/16 03:14:24;;;;;;;0.87;0.83;;;11.60;97.30;;;;;;5052923;28;20427;-93
2022/09/16 03:17:05;;;;;;;3.83;1.37;;;11.60;97.30;;;;;;5049657;28;20422;-91
2022/09/16 03:19:58;;;;;;;1.47;1.17;;;11.60;97.30;;;;;;5051489;28;20434;-91
2022/09/16 03:22:47;;;;;;;1.23;1.13;;;11.70;97.30;;;;;;5052686;28;20474;-93
2022/09/16 03:25:38;;;;;;;3.83;1.20;;;11.60;97.30;;;;;;5055639;28;20421;-90
2022/09/16 03:28:11;;;;;;;1.03;0.97;;;11.60;97.30;;;;;;5045073;28;20423;-91
2022/09/16 03:30:50;;;;;;;1.90;1.20;;;11.60;97.30;;;;;;5056398;28;20438;-91
2022/09/16 03:33:24;;;;;;;1.13;1.03;;;11.60;97.30;;;;;;5041813;28;20422;-91
2022/09/16 03:35:54;;;;;;;1.00;0.90;;;11.60;97.30;;;;;;5049006;28;20429;-92
2022/09/16 03:38:20;;;;;;;1.10;1.00;;;11.60;97.30;;;;;;5065554;28;20447;-91
2022/09/16 03:40:47;;;;;;;1.20;1.10;;;11.50;97.30;;;;;;5049481;28;20441;-93
2022/09/16 03:43:15;;;;;;;0.90;0.90;;;11.50;97.30;;;;;;5049598;28;20204;-92
2022/09/16 03:45:41;;;;;;;1.10;1.10;;;11.50;97.30;;;;;;5035568;28;20450;-91
2022/09/16 03:48:08;;;;;;;1.03;0.90;;;11.50;97.30;;;;;;5048228;28;20433;-92
2022/09/16 03:50:33;;;;;;;1.20;1.10;;;11.50;97.30;;;;;;5040683;28;20430;-92
2022/09/16 03:52:59;;;;;;;0.97;0.90;;;11.50;97.30;;;;;;5052627;28;20454;-91
2022/09/16 03:55:25;;;;;;;1.00;0.90;;;11.50;97.30;;;;;;5068529;28;20426;-91
2022/09/16 03:57:52;;;;;;;1.30;1.23;;;11.40;97.30;;;;;;5052368;28;20208;-92
2022/09/16 04:00:17;;;;;;;1.00;0.90;;;11.40;97.30;;;;;;5039034;28;20179;-92
2022/09/16 04:02:43;;;;;;;1.13;1.13;;;11.40;97.30;;;;;;5055916;28;20643;-91
2022/09/16 04:05:09;;;;;;;2.70;1.57;;;11.40;97.30;;;;;;5043929;28;20168;-91
2022/09/16 04:07:35;;;;;;;1.37;1.20;;;11.40;97.30;;;;;;5058963;28;20188;-91
2022/09/16 04:10:00;;;;;;;0.90;0.90;;;11.40;97.30;;;;;;5059557;28;20192;-91
2022/09/16 04:12:27;;;;;;;1.03;0.93;;;11.40;97.30;;;;;;5047521;28;20457;-92
2022/09/16 04:14:52;;;;;;;1.10;1.00;;;11.30;97.30;;;;;;5049650;28;20184;-91
2022/09/16 04:17:18;;;;;;;1.30;1.20;;;11.30;97.30;;;;;;5064068;28;20430;-91
2022/09/16 04:19:43;;;;;;;1.50;1.00;;;11.30;97.30;;;;;;5046919;28;20180;-92
2022/09/16 04:22:11;;;;;;;1.10;1.00;;;11.30;97.30;;;;;;5062887;28;20231;-93
2022/09/16 04:24:37;;;;;;;1.20;1.10;;;11.30;97.30;;;;;;5046210;28;20672;-91
2022/09/16 04:27:02;;;;;;;1.00;0.97;;;11.20;97.30;;;;;;5063731;28;20435;-91
2022/09/16 04:29:28;;;;;;;2.00;1.40;;;11.20;97.30;;;;;;5044278;28;20187;-91
2022/09/16 04:31:56;;;;;;;1.30;1.20;;;11.20;97.30;;;;;;5032148;28;20287;-91
2022/09/16 04:34:21;;;;;;;1.30;1.20;;;11.20;97.30;;;;;;5061424;28;20233;-91
2022/09/16 04:36:47;;;;;;;1.30;1.10;;;11.20;97.30;;;;;;5045321;28;20438;-91
2022/09/16 04:39:12;;;;;;;1.53;1.20;;;11.20;97.30;;;;;;5023523;28;20188;-90
2022/09/16 04:41:38;;;;;;;2.10;1.40;;;11.10;97.30;;;;;;5035449;28;20226;-91
2022/09/16 04:44:04;;;;;;;1.20;1.17;;;11.10;97.30;;;;;;5045253;28;20202;-91
2022/09/16 04:46:31;;;;;;;1.10;1.00;;;11.10;97.30;;;;;;5051569;28;20180;-91
2022/09/16 04:48:58;;;;;;;1.37;1.30;;;11.10;97.30;;;;;;5056048;28;20407;-91
2022/09/16 04:51:28;;;;;;;1.10;1.00;;;11.10;97.30;;;;;;5042785;28;20453;-91
2022/09/16 04:53:55;;;;;;;1.70;1.23;;;11.00;97.30;;;;;;5041374;28;20421;-91
2022/09/16 04:56:25;;;;;;;1.00;0.90;;;11.00;97.30;;;;;;5042842;28;20515;-91
2022/09/16 04:58:54;;;;;;;1.10;1.03;;;11.00;97.30;;;;;;5043253;28;20426;-91
2022/09/16 05:01:23;;;;;;;1.53;1.43;;;11.00;97.30;;;;;;5041119;28;20489;-91
2022/09/16 05:03:52;;;;;;;1.40;0.90;;;11.00;97.30;;;;;;5042238;28;20445;-91
2022/09/16 05:06:24;;;;;;;1.30;1.20;;;11.00;97.30;;;;;;5042277;28;20833;-91
2022/09/16 05:08:51;;;;;;;1.83;1.70;;;11.00;97.30;;;;;;5047239;28;20426;-91
2022/09/16 05:11:25;;;;;;;1.20;1.20;;;11.00;97.30;;;;;;5041768;28;20446;-91
2022/09/16 05:13:51;;;;;;;1.43;1.33;;;11.00;97.30;;;;;;5039286;28;20427;-90
2022/09/16 05:16:19;;;;;;;1.20;1.10;;;11.00;97.30;;;;;;5059253;28;20699;-91
2022/09/16 05:18:47;;;;;;;1.60;1.50;;;11.00;97.30;;;;;;5040479;28;20215;-91
2022/09/16 05:21:18;;;;;;;1.33;1.13;;;11.00;97.30;;;;;;5034063;28;20442;-89
2022/09/16 05:23:44;;;;;;;2.93;1.07;;;11.00;97.30;;;;;;5036558;28;20458;-91
2022/09/16 05:26:13;;;;;;;1.10;1.00;;;11.00;97.30;;;;;;5038775;28;20414;-91
2022/09/16 05:28:39;;;;;;;1.93;1.30;;;11.10;97.30;;;;;;5034740;28;20406;-92
2022/09/16 05:31:09;;;;;;;1.00;0.90;;;11.10;97.30;;;;;;5027640;28;20439;-91
2022/09/16 05:33:35;;;;;;;1.00;0.90;;;11.10;97.30;;;;;;5042178;28;20422;-90
2022/09/16 05:36:08;;;;;;;14.93;1.10;;;11.10;97.30;;;;;;5053379;28;20419;-90
2022/09/16 05:38:34;;;;;;;1.40;1.30;;;11.10;97.30;;;;;;5034453;28;20187;-90
2022/09/16 05:41:03;;;;;;;1.20;1.10;;;11.20;97.30;;;;;;5037568;28;20526;-90
2022/09/16 05:43:29;;;;;;;1.10;1.00;;;11.20;97.30;;;;;;5032162;28;20195;-90
2022/09/16 05:45:56;;;;;;;1.00;0.90;;;11.20;97.30;;;;;;5032639;28;20418;-91
2022/09/16 05:48:22;;;;;;;1.20;1.13;;;11.20;97.30;;;;;;5032444;28;20465;-90
2022/09/16 05:50:55;;;;;;;1.00;1.00;;;11.20;97.30;;;;;;5055490;28;20418;-89
2022/09/16 05:53:22;;;;;;;1.10;1.00;;;11.30;97.30;;;;;;5033527;28;20430;-91
2022/09/16 05:56:05;;;;;;;2.03;1.50;;;11.30;97.30;;;;;;5034825;28;20461;-90
2022/09/16 05:58:32;;;;;;;1.63;1.53;;;11.40;97.30;;;;;;5033913;28;20438;-91
2022/09/16 06:01:06;;;;;;;6.23;1.93;;;11.40;97.30;;;;;;5034891;28;20520;-90
2022/09/16 06:03:33;;;;;;;1.90;1.10;;;11.40;97.30;;;;;;5038587;28;20450;-92
2022/09/16 06:06:06;;;;;;;1.97;1.30;;;11.50;97.30;;;;;;5029169;28;20941;-92
2022/09/16 06:08:34;;;;;;;1.93;1.80;;;11.50;97.30;;;;;;5037027;28;20453;-91
2022/09/16 06:11:04;;;;;;;3.60;3.40;;;11.60;97.30;;;;;;5040631;28;20442;-92
2022/09/16 06:13:30;;;;;;;1.80;1.33;;;11.60;97.30;;;;;;5038934;28;20497;-91
2022/09/16 06:15:56;;;;;;;1.00;1.00;;;11.70;97.30;;;;;;5049505;28;20451;-91
2022/09/16 06:18:23;;;;;;;1.30;1.30;;;11.70;97.30;;;;;;5035147;28;20179;-91
2022/09/16 06:20:49;;;;;;;1.30;1.03;;;11.80;97.30;;;;;;5032470;28;20180;-91
2022/09/16 06:23:15;;;;;;;3.27;1.30;;;11.80;97.30;;;;;;5044860;28;20481;-91
2022/09/16 06:25:43;;;;;;;1.00;0.90;;;11.80;97.30;;;;;;5050842;28;20195;-91
2022/09/16 06:28:11;;;;;;;1.10;1.00;;;11.90;97.30;;;;;;5054237;28;20479;-91
2022/09/16 06:30:37;;;;;;;1.67;1.50;;;11.90;97.30;;;;;;5049874;28;20451;-92
2022/09/16 06:33:06;;;;;;;1.13;1.10;;;12.00;97.30;;;;;;5058682;28;20613;-92
2022/09/16 06:35:33;;;;;;;1.10;1.00;;;12.00;97.30;;;;;;5044040;28;20501;-91
2022/09/16 06:37:59;;;;;;;1.67;1.20;;;12.00;97.30;;;;;;5043111;28;20481;-91
2022/09/16 06:40:25;;;;;;;0.87;0.80;;;12.10;97.30;;;;;;5047047;28;20441;-91
2022/09/16 06:42:54;;;;;;;1.60;1.53;;;12.10;97.30;;;;;;5048891;28;20239;-91
2022/09/16 06:45:21;;;;;;;1.03;0.93;;;12.20;97.30;;;;;;5049057;28;20187;-91
2022/09/16 06:47:46;;;;;;;1.33;1.10;;;12.20;97.30;;;;;;5048673;28;20421;-91
2022/09/16 06:50:12;;;;;;;1.47;1.03;;;12.20;97.30;;;;;;5052941;28;20461;-92
2022/09/16 06:52:37;;;;;;;2.13;1.10;;;12.30;97.30;;;;;;5056732;28;20198;-91
2022/09/16 06:55:03;;;;;;;1.20;1.10;;;12.40;97.30;;;;;;5071989;28;20194;-92
2022/09/16 06:57:29;;;;;;;1.70;1.57;;;12.50;97.30;;;;;;5061279;28;20183;-91
2022/09/16 06:59:55;;;;;;;1.00;0.90;;;12.60;97.30;;;;;;5060781;28;20454;-92
2022/09/16 07:02:26;;;;;;;2.70;1.20;;;12.70;97.30;;;;;;5054733;28;20600;-90
2022/09/16 07:04:53;;;;;;;0.93;0.87;;;12.80;97.30;;;;;;5053524;28;20182;-92
2022/09/16 07:07:19;;;;;;;0.90;0.90;;;12.80;97.30;;;;;;5049767;28;20438;-91
2022/09/16 07:09:45;;;;;;;0.97;0.87;;;12.90;97.30;;;;;;5066165;28;20445;-92
2022/09/16 07:12:10;;;;;;;1.17;1.07;;;12.90;97.30;;;;;;5053482;28;20199;-92
2022/09/16 07:14:36;;;;;;;1.20;1.10;;;12.90;97.30;;;;;;5049519;28;20469;-92
2022/09/16 07:17:01;;;;;;;20.57;1.47;;;13.00;97.30;;;;;;5051469;28;20187;-92
2022/09/16 07:19:28;;;;;;;1.17;1.10;;;13.00;97.30;;;;;;5048969;28;20197;-91
2022/09/16 07:21:53;;;;;;;1.10;1.10;;;12.90;97.30;;;;;;5045950;28;20227;-91
2022/09/16 07:24:21;;;;;;;1.00;0.90;;;12.90;97.30;;;;;;5055918;28;20433;-92
2022/09/16 07:26:47;;;;;;;1.00;0.90;;;12.90;97.30;;;;;;5061048;28;20360;-92
2022/09/16 07:29:14;;;;;;;1.00;0.90;;;12.90;97.30;;;;;;5059759;28;20489;-91
2022/09/16 07:31:43;;;;;;;1.30;1.10;;;12.90;97.30;;;;;;5050618;28;20290;-91
2022/09/16 07:34:10;;;;;;;1.07;0.97;;;12.90;97.30;;;;;;5048561;28;20489;-91
2022/09/16 07:36:40;;;;;;;0.90;0.80;;;13.00;97.30;;;;;;5048018;28;20490;-92
2022/09/16 07:39:06;;;;;;;1.00;1.00;;;13.00;97.30;;;;;;5048699;28;20442;-91
2022/09/16 07:41:37;;;;;;;1.10;1.10;;;13.00;97.30;;;;;;5046023;28;20462;-91
2022/09/16 07:44:06;;;;;;;1.17;1.07;;;13.10;97.30;;;;;;5043346;28;20421;-91
2022/09/16 07:46:34;;;;;;;30.10;2.07;;;13.20;97.30;;;;;;5037037;28;20792;-90
2022/09/16 07:49:04;;;;;;;1.47;0.90;;;13.20;97.30;;;;;;5041777;28;20422;-90
2022/09/16 07:51:30;;;;;;;1.33;1.00;;;13.20;97.30;;;;;;5040626;28;20450;-90
2022/09/16 07:54:02;;;;;;;1.10;1.00;;;13.30;97.30;;;;;;5042598;28;20454;-91
2022/09/16 07:56:30;;;;;;;0.97;0.90;;;13.30;97.30;;;;;;5041993;28;20430;-91
2022/09/16 07:58:56;;;;;;;1.03;0.97;;;13.30;97.30;;;;;;5036939;28;20414;-91
2022/09/16 08:01:22;;;;;;;5.27;1.13;;;13.40;97.30;;;;;;5044515;28;20605;-91
2022/09/16 08:03:48;;;;;;;1.87;1.77;;;13.40;97.30;;;;;;5046967;28;20415;-91
2022/09/16 08:06:22;;;;;;;1.00;0.90;;;13.40;97.30;;;;;;5039964;28;20430;-92
2022/09/16 08:08:58;;;;;;;1.13;0.90;;;13.50;97.30;;;;;;5037408;28;20552;-91
2022/09/16 08:11:25;;;;;;;7.20;1.20;;;13.50;97.30;;;;;;5038386;28;20441;-90
2022/09/16 08:13:53;;;;;;;1.83;1.70;;;13.50;97.30;;;;;;5040520;28;21035;-91
2022/09/16 08:16:22;;;;;;;2.23;1.50;;;13.50;97.30;;;;;;5031807;28;20458;-91
2022/09/16 08:18:50;;;;;;;2.30;2.10;;;13.50;97.30;;;;;;5038538;28;20450;-91
2022/09/16 08:21:18;;;;;;;1.20;1.10;;;13.50;97.30;;;;;;5038410;28;20729;-91
2022/09/16 08:23:44;;;;;;;1.10;1.00;;;13.60;97.30;;;;;;5038434;28;20466;-91
2022/09/16 08:26:13;;;;;;;1.10;1.00;;;13.60;97.30;;;;;;5038679;28;20434;-91
2022/09/16 08:28:40;;;;;;;3.47;1.13;;;13.60;97.30;;;;;;5044417;28;20489;-91
2022/09/16 08:31:07;;;;;;;1.23;1.13;;;13.70;97.30;;;;;;5041756;28;20438;-92
2022/09/16 08:33:33;;;;;;;6.30;1.73;;;13.80;97.30;;;;;;5057387;28;20426;-91
2022/09/16 08:36:07;;;;;;;1.47;1.20;;;13.90;97.30;;;;;;5060456;28;20441;-91
2022/09/16 08:38:35;;;;;;;1.27;1.17;;;14.10;97.30;;;;;;5041123;28;20183;-91
2022/09/16 08:41:16;;;;;;;1.50;1.00;;;14.20;97.30;;;;;;5039088;28;20498;-91
2022/09/16 08:44:05;;;;;;;2.40;1.83;;;14.20;97.30;;;;;;5039982;28;20483;-91
2022/09/16 08:46:39;;;;;;;1.67;1.63;;;14.40;97.30;;;;;;5038637;28;20418;-92
2022/09/16 08:49:25;;;;;;;1.17;1.07;;;14.50;97.30;;;;;;5035304;28;20916;-94
2022/09/16 08:51:54;;;;;;;1.03;0.93;;;14.60;97.30;;;;;;5042208;28;20538;-92
2022/09/16 08:54:44;;;;;;;1.00;0.90;;;14.60;97.30;;;;;;5037059;28;20418;-92
2022/09/16 08:57:40;;;;;;;1.47;1.47;;;14.60;97.30;;;;;;5037843;28;20438;-92
2022/09/16 09:00:17;;;;;;;1.10;1.00;;;14.70;97.30;;;;;;5027280;28;20525;-91
2022/09/16 09:03:01;;;;;;;1.00;1.00;;;14.80;97.30;;;;;;5036574;28;20465;-88
2022/09/16 09:05:45;;;;;;;1.50;1.40;;;14.80;97.30;;;;;;5037410;28;20418;-92
2022/09/16 09:08:29;;;;;;;9.13;1.50;;;14.80;97.30;;;;;;5041678;28;20415;-90
2022/09/16 09:11:02;;;;;;;1.17;1.10;;;14.80;97.30;;;;;;5035506;28;20410;-91
2022/09/16 09:13:54;;;;;;;5.87;1.30;;;14.90;97.30;;;;;;5037209;28;20425;-90
2022/09/16 09:16:38;;;;;;;1.10;1.00;;;15.00;97.30;;;;;;5044274;28;20459;-91
2022/09/16 09:19:32;;;;;;;1.00;0.90;;;15.10;97.30;;;;;;5039097;28;20464;-92
2022/09/16 09:22:37;;;;;;;1.30;1.20;;;15.10;97.30;;;;;;5038130;28;20472;-91
2022/09/16 09:25:37;;;;;;;0.90;0.90;;;15.00;97.30;;;;;;5042053;28;20931;-92
2022/09/16 09:28:35;;;;;;;1.07;0.97;;;15.00;97.30;;;;;;5048933;28;20414;-92
2022/09/16 09:31:34;;;;;;;1.00;1.00;;;15.00;97.30;;;;;;5050890;28;20434;-91
2022/09/16 09:34:47;;;;;;;0.90;0.80;;;15.00;97.30;;;;;;5038099;28;20422;-90
2022/09/16 09:41:14;;;;;;;0.90;0.80;;;15.00;97.30;;;;;;4978520;28;20449;-89
2022/09/16 09:44:17;;;;;;;0.90;0.90;;;14.90;97.30;;;;;;5009621;28;20430;-92
2022/09/16 09:50:18;;;;;;;0.90;0.80;;;14.80;97.30;;;;;;4954018;28;20430;-91
2022/09/16 09:53:32;;;;;;;;;;;;;;;;;;;;;
2022/09/16 09:56:38;;;;;;;1.00;0.90;;;14.80;97.30;;;;;;4945806;29;20423;-91
2022/09/16 09:59:56;;;;;;;1.00;0.90;;;14.80;97.30;;;;;;4952905;29;20418;-91
2022/09/16 10:02:48;;;;;;;1.10;1.00;;;14.90;97.30;;;;;;4932239;29;20614;-92
2022/09/16 10:05:49;;;;;;;1.03;0.93;;;15.10;97.30;;;;;;4887543;29;20436;-91
2022/09/16 10:14:37;;;;;;;3.83;1.10;;;15.60;97.30;;;;;;4936708;28;20418;-91
2022/09/16 10:17:18;;;;;;;4.10;1.10;;;15.60;97.30;;;;;;5029498;28;20419;-89
2022/09/16 10:20:28;;;;;;;1.53;1.43;;;15.60;97.30;;;;;;5034156;28;20502;-91
2022/09/16 10:23:37;;;;;;;0.90;0.87;;;15.50;97.30;;;;;;4992197;28;20484;-92
2022/09/16 10:26:15;;;;;;;2.70;0.90;;;15.50;97.30;;;;;;4981061;28;20417;-91
2022/09/16 10:28:41;;;;;;;0.70;0.70;;;15.30;97.30;;;;;;4989246;28;20417;-92
2022/09/16 10:31:07;;;;;;;5.93;1.17;;;15.30;97.30;;;;;;5053271;28;20531;-91
2022/09/16 10:33:48;;;;;;;2.10;0.90;;;15.30;97.30;;;;;;5035626;28;20175;-90
2022/09/16 10:36:38;;;;;;;1.10;1.00;;;15.30;97.30;;;;;;5031223;28;20407;-92
2022/09/16 10:39:48;;;;;;;1.30;1.20;;;15.30;96.50;;;;;;5040497;28;20414;-91
2022/09/16 10:42:38;;;;;;;1.03;1.03;;;15.30;97.30;;;;;;4957823;28;20481;-91
2022/09/16 10:45:59;;;;;;;7.80;1.00;;;15.40;97.20;;;;;;5032734;28;20406;-89
2022/09/16 10:48:38;;;;;;;0.80;0.80;;;15.40;97.30;;;;;;5026410;28;20419;-91
2022/09/16 10:51:36;;;;;;;1.00;0.90;;;15.50;95.70;;;;;;5037847;28;20442;-92
2022/09/16 10:54:27;;;;;;;1.17;0.97;;;15.50;95.40;;;;;;5037097;28;20422;-89
2022/09/16 10:56:57;;;;;;;1.00;0.90;;;15.60;96.00;;;;;;5029985;28;20509;-91
2022/09/16 10:59:24;;;;;;;1.10;0.83;;;15.60;95.00;;;;;;5039686;28;20414;-92
2022/09/16 11:02:14;;;;;;;0.93;0.87;;;15.70;93.80;;;;;;5037688;28;20461;-91
2022/09/16 11:05:16;;;;;;;1.00;0.90;;;15.70;92.50;;;;;;5029249;28;20410;-91
2022/09/16 11:11:48;;;;;;;1.00;0.90;;;15.70;93.20;;;;;;5029189;28;20462;-90
2022/09/16 11:14:47;;;;;;;1.00;0.90;;;15.70;93.60;;;;;;5025067;28;20432;-91
2022/09/16 11:17:27;;;;;;;0.87;0.80;;;15.80;93.40;;;;;;5052528;28;20455;-90
2022/09/16 11:20:53;;;;;;;;;;;;;;;;;;;;;
2022/09/16 11:24:27;;;;;;;1.00;0.90;;;16.30;93.10;;;;;;4967700;28;21018;-91
2022/09/16 11:27:23;;;;;;;1.10;1.00;;;16.60;91.00;;;;;;4948681;28;20429;-91
2022/09/16 11:30:12;;;;;;;1.20;1.10;;;16.60;90.90;;;;;;4967021;28;20423;-92
2022/09/16 11:32:57;;;;;;;17.00;1.43;;;16.80;91.50;;;;;;5023555;28;20797;-92
2022/09/16 11:35:30;;;;;;;1.00;0.90;;;16.80;90.70;;;;;;5035699;28;20512;-90
2022/09/16 11:38:21;;;;;;;0.90;0.90;;;16.80;91.40;;;;;;5034183;28;20457;-91
2022/09/16 11:40:58;;;;;;;1.00;0.90;;;17.00;91.80;;;;;;5038792;28;20449;-91
2022/09/16 11:43:35;;;;;;;0.90;0.80;;;17.10;88.80;;;;;;5045399;28;20454;-92
2022/09/16 11:46:06;;;;;;;1.10;1.00;;;17.10;90.10;;;;;;5059744;28;20448;-91
2022/09/16 11:48:59;;;;;;;1.00;1.00;;;17.20;90.00;;;;;;5059234;28;20418;-92
2022/09/16 11:51:59;;;;;;;1.10;1.00;;;17.20;88.80;;;;;;5054046;28;20426;-91
2022/09/16 11:54:34;;;;;;;1.00;0.90;;;17.10;89.00;;;;;;5042374;28;20419;-90
2022/09/16 11:57:06;;;;;;;1.00;0.90;;;17.00;89.80;;;;;;5038430;28;20441;-91
2022/09/16 11:59:44;;;;;;;0.87;0.80;;;17.00;89.70;;;;;;5037176;28;20446;-90
2022/09/16 12:02:48;;;;;;;1.17;0.90;;;17.20;89.70;;;;;;5037402;28;20509;-92
2022/09/16 12:05:28;;;;;;;0.80;0.80;;;17.60;88.70;;;;;;5018275;28;20408;-90
2022/09/16 12:08:21;;;;;;;1.10;1.00;;;17.60;87.40;;;;;;5048381;28;20908;-92
2022/09/16 12:10:54;;;;;;;1.10;1.00;;;17.40;86.60;;;;;;5038570;28;20822;-91
2022/09/16 12:13:45;;;;;;;0.73;0.70;;;17.10;87.60;;;;;;5038863;28;20414;-92
2022/09/16 12:16:34;;;;;;;1.33;1.00;;;16.90;89.30;;;;;;5037002;28;20423;-91
2022/09/16 12:19:08;;;;;;;0.90;0.90;;;16.80;89.70;;;;;;5023279;28;20424;-92
2022/09/16 12:21:39;;;;;;;0.70;0.70;;;16.60;91.00;;;;;;5052417;28;20466;-92
2022/09/16 12:24:15;;;;;;;1.00;0.90;;;16.50;91.40;;;;;;5054775;28;20430;-90
2022/09/16 12:26:48;;;;;;;1.90;1.13;;;16.30;91.40;;;;;;5040071;28;20414;-92
2022/09/16 12:29:30;;;;;;;1.00;0.80;;;16.20;91.20;;;;;;5036805;28;20423;-91
2022/09/16 12:32:03;;;;;;;1.00;0.90;;;16.20;89.80;;;;;;5042340;28;20438;-90
2022/09/16 12:34:48;;;;;;;0.90;0.80;;;16.40;90.20;;;;;;5040070;23;20499;-92
2022/09/16 12:37:29;;;;;;;1.00;0.90;;;16.80;88.50;;;;;;4990730;28;20794;-92
2022/09/16 12:39:59;;;;;;;1.03;0.93;;;17.00;86.30;;;;;;4976044;28;20488;-92
2022/09/16 12:42:36;;;;;;;0.70;0.70;;;17.20;86.00;;;;;;5004477;28;20545;-90
2022/09/16 12:45:47;;;;;;;1.00;0.90;;;17.40;86.00;;;;;;4985887;28;20899;-91
2022/09/16 12:51:41;;;;;;;0.90;0.80;;;17.80;86.50;;;;;;5001249;28;20414;-91
2022/09/16 12:54:06;;;;;;;0.90;0.80;;;18.10;87.20;;;;;;5002234;28;20847;-92
2022/09/16 12:57:03;;;;;;;1.03;0.90;;;18.30;86.60;;;;;;5014068;28;20492;-92
2022/09/16 12:59:34;;;;;;;1.00;0.90;;;18.40;84.70;;;;;;4999535;28;20649;-91
2022/09/16 13:02:23;;;;;;;1.00;0.90;;;18.40;85.90;;;;;;5010312;28;20506;-91
2022/09/16 13:04:52;;;;;;;0.70;0.70;;;18.60;85.40;;;;;;4988595;28;20444;-90
2022/09/16 13:07:27;;;;;;;0.90;0.80;;;18.70;84.40;;;;;;4990884;28;20417;-91
2022/09/16 13:10:22;;;;;;;2.00;1.00;;;18.70;83.90;;;;;;4993743;28;20419;-91
2022/09/16 13:13:08;;;;;;;1.47;0.90;;;18.70;83.60;;;;;;4984888;28;20424;-89
2022/09/16 13:15:43;;;;;;;0.90;0.80;;;18.80;83.80;;;;;;4984223;28;20486;-92
2022/09/16 13:18:17;;;;;;;0.97;0.87;;;18.90;84.50;;;;;;4993100;28;20430;-90
2022/09/16 13:21:00;;;;;;;0.90;0.80;;;19.10;83.70;;;;;;5010768;28;20423;-92
2022/09/16 13:23:33;;;;;;;0.70;0.70;;;19.10;81.60;;;;;;5008711;28;20459;-91
2022/09/16 13:26:00;;;;;;;1.00;1.00;;;19.20;82.90;;;;;;5000526;28;20444;-87
2022/09/16 13:28:25;;;;;;;2.17;0.90;;;19.30;82.20;;;;;;5002792;28;20443;-91
2022/09/16 13:30:51;;;;;;;1.63;1.53;;;19.30;83.10;;;;;;5022459;28;20452;-92
2022/09/16 13:33:17;;;;;;;0.90;0.80;;;19.40;82.80;;;;;;4994862;28;20196;-89
2022/09/16 13:35:48;;;;;;;0.90;0.80;;;19.40;83.50;;;;;;4992171;28;20812;-90
2022/09/16 13:38:13;;;;;;;0.90;0.80;;;19.50;83.30;;;;;;5000431;28;20212;-91
2022/09/16 13:40:50;;;;;;;1.40;1.30;;;19.30;83.70;;;;;;5012122;28;20452;-92
2022/09/16 13:43:16;;;;;;;1.00;0.73;;;19.00;83.70;;;;;;5010057;28;20204;-90
2022/09/16 13:45:47;;;;;;;0.90;0.80;;;18.60;83.40;;;;;;5002504;28;20442;-91
2022/09/16 13:48:18;;;;;;;0.90;0.80;;;18.30;84.80;;;;;;5011946;28;20712;-90
2022/09/16 13:50:57;;;;;;;0.70;0.70;;;18.10;85.50;;;;;;5011625;28;20914;-93